Time;durP1;ratioP1;P1;durP2;ratioP2;P2;SDS_P1;SDS_P2;PMS_P1;PMS_P2;Temp;Humidity;BMP_temperature;BMP_pressure;BME280_temperature;BME280_humidity;BME280_pressure;Samples;Min_cycle;Max_cycle;Signal;HPM_P1;HPM_P2
2021/07/03 00:01:28;;;;;;;41.95;28.25;;;;;;;;;;5058250;28;20031;-93
2021/07/03 00:03:53;;;;;;;45.30;28.90;;;;;;;;;;5064274;28;20043;-93
2021/07/03 00:06:19;;;;;;;46.67;28.40;;;;;;;;;;5064361;28;20361;-93
2021/07/03 00:08:44;;;;;;;44.80;27.08;;;;;;;;;;5064701;28;20016;-93
2021/07/03 00:11:10;;;;;;;43.63;27.08;;;;;;;;;;5065474;28;20112;-93
2021/07/03 00:13:35;;;;;;;48.30;27.63;;;;;;;;;;5079716;28;20483;-93
2021/07/03 00:16:01;;;;;;;46.60;27.95;;;;;;;;;;5063582;28;20132;-94
2021/07/03 00:18:26;;;;;;;43.65;28.20;;;;;;;;;;5064701;28;20045;-92
2021/07/03 00:20:51;;;;;;;45.00;28.30;;;;;;;;;;5064712;28;20029;-92
2021/07/03 00:23:17;;;;;;;45.85;27.65;;;;;;;;;;5062721;28;20029;-92
2021/07/03 00:25:42;;;;;;;42.10;26.00;;;;;;;;;;5067816;28;20066;-93
2021/07/03 00:28:08;;;;;;;46.42;26.77;;;;;;;;;;5075985;28;20054;-92
2021/07/03 00:30:33;;;;;;;42.58;26.33;;;;;;;;;;5064021;28;20020;-92
2021/07/03 00:32:59;;;;;;;40.55;25.90;;;;;;;;;;5080189;28;20028;-93
2021/07/03 00:35:24;;;;;;;46.08;27.77;;;;;;;;;;5082576;28;20024;-93
2021/07/03 00:37:49;;;;;;;44.33;27.60;;;;;;;;;;5067395;28;20059;-93
2021/07/03 00:40:15;;;;;;;46.78;28.13;;;;;;;;;;5071967;28;20025;-93
2021/07/03 00:42:40;;;;;;;42.83;26.60;;;;;;;;;;5063011;28;20021;-92
2021/07/03 00:45:06;;;;;;;42.47;28.00;;;;;;;;;;5064518;28;20040;-92
2021/07/03 00:47:31;;;;;;;44.55;27.58;;;;;;;;;;5061402;28;20044;-92
2021/07/03 00:49:57;;;;;;;45.80;28.23;;;;;;;;;;5060939;28;20052;-94
2021/07/03 00:52:22;;;;;;;45.10;27.35;;;;;;;;;;5061517;28;20017;-94
2021/07/03 00:54:48;;;;;;;48.10;27.73;;;;;;;;;;5076272;28;20013;-93
2021/07/03 00:57:14;;;;;;;48.17;27.55;;;;;;;;;;5065078;28;20021;-93
2021/07/03 00:59:40;;;;;;;47.17;29.88;;;;;;;;;;5079112;28;20031;-92
2021/07/03 01:02:07;;;;;;;45.83;29.05;;;;;;;;;;5065782;28;20021;-93
2021/07/03 01:04:32;;;;;;;47.78;29.20;;;;;;;;;;5083140;28;20027;-92
2021/07/03 01:06:58;;;;;;;46.03;27.33;;;;;;;;;;5068800;28;20024;-93
2021/07/03 01:09:23;;;;;;;43.80;26.83;;;;;;;;;;5063155;28;20052;-93
2021/07/03 01:11:50;;;;;;;44.92;25.08;;;;;;;;;;5065106;28;20201;-92
2021/07/03 01:14:15;;;;;;;47.22;27.27;;;;;;;;;;5065686;28;20021;-92
2021/07/03 01:16:44;;;;;;;47.88;29.42;;;;;;;;;;5076829;28;20087;-92
2021/07/03 01:19:10;;;;;;;43.05;26.48;;;;;;;;;;5067481;28;20060;-93
2021/07/03 01:21:35;;;;;;;42.90;26.02;;;;;;;;;;5068758;28;20411;-93
2021/07/03 01:24:01;;;;;;;45.20;27.00;;;;;;;;;;5081882;28;20150;-94
2021/07/03 01:26:26;;;;;;;44.03;26.38;;;;;;;;;;5068395;28;20025;-93
2021/07/03 01:28:52;;;;;;;42.75;25.83;;;;;;;;;;5075043;28;20048;-93
2021/07/03 01:31:17;;;;;;;44.22;26.35;;;;;;;;;;5067534;28;20032;-94
2021/07/03 01:33:42;;;;;;;41.47;25.40;;;;;;;;;;5067478;28;20025;-94
2021/07/03 01:36:08;;;;;;;43.47;25.98;;;;;;;;;;5063488;28;20020;-93
2021/07/03 01:38:33;;;;;;;41.78;25.60;;;;;;;;;;5065406;28;20021;-92
2021/07/03 01:40:58;;;;;;;47.47;26.10;;;;;;;;;;5064274;28;20029;-92
2021/07/03 01:43:25;;;;;;;42.88;26.45;;;;;;;;;;5062654;28;20171;-92
2021/07/03 01:45:51;;;;;;;43.33;26.05;;;;;;;;;;5064781;28;20079;-93
2021/07/03 01:48:26;;;;;;;41.28;25.90;;;;;;;;;;5064416;28;20021;-94
2021/07/03 01:50:51;;;;;;;41.05;26.00;;;;;;;;;;5065852;28;20021;-93
2021/07/03 01:53:17;;;;;;;41.25;26.27;;;;;;;;;;5065947;28;20043;-93
2021/07/03 01:55:42;;;;;;;41.03;24.95;;;;;;;;;;5062609;28;20104;-94
2021/07/03 01:58:07;;;;;;;40.63;24.52;;;;;;;;;;5070753;28;20084;-94
2021/07/03 02:00:33;;;;;;;39.97;24.65;;;;;;;;;;5073239;28;20024;-94
2021/07/03 02:02:58;;;;;;;44.97;25.77;;;;;;;;;;5070064;28;20107;-94
2021/07/03 02:05:24;;;;;;;44.58;26.50;;;;;;;;;;5076158;28;20017;-93
2021/07/03 02:07:49;;;;;;;43.75;26.13;;;;;;;;;;5067745;28;20119;-93
2021/07/03 02:10:14;;;;;;;39.75;25.15;;;;;;;;;;5065653;28;20051;-92
2021/07/03 02:12:41;;;;;;;46.72;26.17;;;;;;;;;;5078808;28;20021;-92
2021/07/03 02:15:07;;;;;;;44.30;27.50;;;;;;;;;;5063780;28;20021;-93
2021/07/03 02:17:32;;;;;;;41.05;26.58;;;;;;;;;;5063199;28;20088;-93
2021/07/03 02:19:57;;;;;;;45.17;26.35;;;;;;;;;;5075989;28;20092;-92
2021/07/03 02:22:22;;;;;;;42.05;25.67;;;;;;;;;;5062671;28;20112;-93
2021/07/03 02:24:48;;;;;;;40.88;26.45;;;;;;;;;;5061487;28;20025;-92
2021/07/03 02:27:13;;;;;;;44.00;26.38;;;;;;;;;;5060826;28;20362;-92
2021/07/03 02:29:38;;;;;;;46.38;26.55;;;;;;;;;;5060701;28;20029;-92
2021/07/03 02:32:04;;;;;;;46.30;25.92;;;;;;;;;;5061886;28;20017;-92
2021/07/03 02:34:29;;;;;;;41.08;26.42;;;;;;;;;;5062039;28;20020;-93
2021/07/03 02:36:54;;;;;;;52.38;26.27;;;;;;;;;;5058594;28;20028;-92
2021/07/03 02:39:20;;;;;;;47.45;26.95;;;;;;;;;;5060914;28;20025;-93
2021/07/03 02:41:45;;;;;;;45.88;26.25;;;;;;;;;;5064018;28;20028;-93
2021/07/03 02:44:10;;;;;;;46.75;26.38;;;;;;;;;;5073151;28;20059;-94
2021/07/03 02:46:38;;;;;;;46.90;27.30;;;;;;;;;;5074123;28;20021;-93
2021/07/03 02:49:03;;;;;;;46.60;26.52;;;;;;;;;;5061243;28;20465;-93
2021/07/03 02:51:29;;;;;;;42.65;24.92;;;;;;;;;;5068579;28;20012;-92
2021/07/03 02:53:54;;;;;;;49.35;25.60;;;;;;;;;;5055479;28;20373;-93
2021/07/03 02:56:19;;;;;;;44.92;25.60;;;;;;;;;;5057933;28;20472;-93
2021/07/03 02:58:44;;;;;;;42.28;25.20;;;;;;;;;;5058222;28;20473;-93
2021/07/03 03:01:10;;;;;;;38.58;24.60;;;;;;;;;;5062015;28;20017;-94
2021/07/03 03:03:35;;;;;;;38.78;24.83;;;;;;;;;;5073592;28;20054;-93
2021/07/03 03:06:00;;;;;;;41.47;26.00;;;;;;;;;;5064335;28;20032;-93
2021/07/03 03:08:26;;;;;;;44.78;26.02;;;;;;;;;;5060140;28;20361;-92
2021/07/03 03:10:51;;;;;;;46.88;26.77;;;;;;;;;;5056271;28;20021;-94
2021/07/03 03:13:16;;;;;;;47.63;26.48;;;;;;;;;;5074663;28;20020;-93
2021/07/03 03:15:41;;;;;;;43.85;24.83;;;;;;;;;;5076780;28;20020;-94
2021/07/03 03:18:07;;;;;;;40.53;25.02;;;;;;;;;;5065340;28;20020;-93
2021/07/03 03:20:32;;;;;;;45.75;25.27;;;;;;;;;;5061631;28;20112;-93
2021/07/03 03:22:57;;;;;;;39.30;25.40;;;;;;;;;;5065063;28;20495;-93
2021/07/03 03:25:23;;;;;;;44.30;25.58;;;;;;;;;;5072563;28;20044;-92
2021/07/03 03:27:48;;;;;;;43.42;25.30;;;;;;;;;;5060954;28;20054;-94
2021/07/03 03:30:14;;;;;;;42.30;25.33;;;;;;;;;;5060414;28;20465;-93
2021/07/03 03:32:39;;;;;;;47.30;25.65;;;;;;;;;;5062024;28;20070;-93
2021/07/03 03:35:05;;;;;;;49.45;26.58;;;;;;;;;;5064744;28;20039;-93
2021/07/03 03:37:30;;;;;;;45.00;26.58;;;;;;;;;;5071958;28;20021;-93
2021/07/03 03:39:56;;;;;;;48.72;24.75;;;;;;;;;;5069056;28;20025;-94
2021/07/03 03:42:21;;;;;;;46.38;25.20;;;;;;;;;;5069870;28;20479;-92
2021/07/03 03:44:46;;;;;;;40.17;24.20;;;;;;;;;;5067747;28;20025;-94
2021/07/03 03:47:12;;;;;;;38.00;24.33;;;;;;;;;;5074337;28;20028;-93
2021/07/03 03:49:37;;;;;;;36.72;23.60;;;;;;;;;;5061148;28;20066;-94
2021/07/03 03:52:02;;;;;;;39.80;24.50;;;;;;;;;;5074333;28;20080;-94
2021/07/03 03:54:28;;;;;;;44.50;26.10;;;;;;;;;;5064485;28;20024;-94
2021/07/03 03:59:37;;;;;;;38.53;24.40;;;;;;;;;;5061060;28;20170;-94
2021/07/03 04:02:02;;;;;;;47.75;25.73;;;;;;;;;;5069531;28;20029;-94
2021/07/03 04:04:27;;;;;;;43.05;23.65;;;;;;;;;;5064135;28;20055;-93
2021/07/03 04:06:53;;;;;;;42.72;22.02;;;;;;;;;;5079879;28;20021;-93
2021/07/03 04:09:18;;;;;;;47.53;24.17;;;;;;;;;;5063282;28;20013;-95
2021/07/03 04:11:43;;;;;;;40.10;22.25;;;;;;;;;;5061555;28;20108;-92
2021/07/03 04:14:08;;;;;;;37.35;22.73;;;;;;;;;;5058528;28;20112;-94
2021/07/03 04:16:34;;;;;;;37.67;21.50;;;;;;;;;;5074680;28;20381;-93
2021/07/03 04:18:59;;;;;;;34.45;21.92;;;;;;;;;;5057379;28;20029;-93
2021/07/03 04:21:24;;;;;;;40.70;21.40;;;;;;;;;;5071996;28;20486;-94
2021/07/03 04:23:49;;;;;;;34.72;21.42;;;;;;;;;;5056156;28;20056;-92
2021/07/03 04:26:14;;;;;;;38.17;21.80;;;;;;;;;;5055818;28;20028;-93
2021/07/03 04:28:40;;;;;;;42.65;20.75;;;;;;;;;;5059443;28;20166;-92
2021/07/03 04:31:05;;;;;;;34.40;21.77;;;;;;;;;;5067663;28;20021;-93
2021/07/03 04:33:30;;;;;;;38.05;20.55;;;;;;;;;;5058003;28;20013;-93
2021/07/03 04:35:55;;;;;;;35.05;21.67;;;;;;;;;;5065243;28;20017;-93
2021/07/03 04:38:20;;;;;;;34.65;20.52;;;;;;;;;;5061347;28;20045;-93
2021/07/03 04:40:46;;;;;;;36.53;19.58;;;;;;;;;;5075668;28;20352;-93
2021/07/03 04:43:11;;;;;;;36.45;21.13;;;;;;;;;;5062100;28;20089;-93
2021/07/03 04:45:36;;;;;;;35.50;20.80;;;;;;;;;;5069389;28;20035;-93
2021/07/03 04:48:01;;;;;;;35.05;20.45;;;;;;;;;;5054399;28;20021;-94
2021/07/03 04:50:26;;;;;;;31.88;19.10;;;;;;;;;;5055468;28;20430;-92
2021/07/03 04:52:51;;;;;;;34.92;21.10;;;;;;;;;;5062368;28;20016;-94
2021/07/03 04:55:17;;;;;;;36.33;20.77;;;;;;;;;;5075692;28;20036;-93
2021/07/03 04:57:42;;;;;;;37.83;19.88;;;;;;;;;;5059863;28;20158;-94
2021/07/03 05:00:07;;;;;;;34.75;19.48;;;;;;;;;;5066075;28;20135;-93
2021/07/03 05:02:33;;;;;;;34.95;20.30;;;;;;;;;;5061782;28;20025;-94
2021/07/03 05:04:58;;;;;;;35.60;18.90;;;;;;;;;;5069495;28;20036;-94
2021/07/03 05:07:23;;;;;;;34.65;18.58;;;;;;;;;;5068937;28;20017;-94
2021/07/03 05:09:49;;;;;;;32.92;18.23;;;;;;;;;;5076745;28;20392;-94
2021/07/03 05:12:14;;;;;;;32.30;17.85;;;;;;;;;;5066345;28;20361;-93
2021/07/03 05:14:39;;;;;;;28.83;16.98;;;;;;;;;;5069374;28;20042;-94
2021/07/03 05:17:04;;;;;;;27.02;16.48;;;;;;;;;;5054985;28;20444;-93
2021/07/03 05:19:31;;;;;;;29.52;16.77;;;;;;;;;;5055669;28;20353;-94
2021/07/03 05:21:56;;;;;;;27.75;16.85;;;;;;;;;;5061791;28;20357;-95
2021/07/03 05:24:21;;;;;;;28.63;16.30;;;;;;;;;;5062941;28;20036;-94
2021/07/03 05:26:46;;;;;;;32.22;17.77;;;;;;;;;;5059086;28;20013;-94
2021/07/03 05:29:11;;;;;;;26.48;17.08;;;;;;;;;;5064471;28;20017;-94
2021/07/03 05:31:37;;;;;;;31.17;16.50;;;;;;;;;;5060063;28;20465;-95
2021/07/03 05:34:02;;;;;;;26.45;16.13;;;;;;;;;;5068593;28;20021;-94
2021/07/03 05:36:27;;;;;;;29.05;15.70;;;;;;;;;;5059565;28;20033;-95
2021/07/03 05:38:53;;;;;;;25.02;14.85;;;;;;;;;;5060480;28;20028;-94
2021/07/03 05:41:18;;;;;;;30.40;15.48;;;;;;;;;;5064661;28;20025;-94
2021/07/03 05:43:44;;;;;;;29.83;15.75;;;;;;;;;;5057998;28;20087;-94
2021/07/03 05:46:10;;;;;;;24.83;15.52;;;;;;;;;;5074430;28;20086;-93
2021/07/03 05:48:35;;;;;;;31.20;16.15;;;;;;;;;;5058109;28;20013;-94
2021/07/03 05:51:01;;;;;;;26.00;15.25;;;;;;;;;;5068156;28;20439;-94
2021/07/03 05:53:26;;;;;;;28.15;17.13;;;;;;;;;;5062525;28;20036;-93
2021/07/03 05:55:52;;;;;;;28.60;14.80;;;;;;;;;;5067991;28;20080;-93
2021/07/03 05:58:17;;;;;;;26.05;14.73;;;;;;;;;;5061794;28;20024;-94
2021/07/03 06:00:42;;;;;;;26.20;16.15;;;;;;;;;;5060517;28;20024;-93
2021/07/03 06:03:07;;;;;;;28.48;15.55;;;;;;;;;;5057195;28;20020;-93
2021/07/03 06:05:33;;;;;;;26.00;14.35;;;;;;;;;;5066015;28;20036;-94
2021/07/03 06:07:58;;;;;;;26.60;14.38;;;;;;;;;;5073816;28;20503;-95
2021/07/03 06:10:23;;;;;;;25.27;12.98;;;;;;;;;;5064508;28;20017;-94
2021/07/03 06:12:49;;;;;;;23.63;13.95;;;;;;;;;;5069107;28;20024;-94
2021/07/03 06:15:14;;;;;;;19.75;12.48;;;;;;;;;;5066357;28;20017;-93
2021/07/03 06:17:39;;;;;;;21.23;12.70;;;;;;;;;;5054931;28;20480;-93
2021/07/03 06:20:05;;;;;;;22.75;12.40;;;;;;;;;;5067645;28;20029;-93
2021/07/03 06:22:30;;;;;;;22.92;12.48;;;;;;;;;;5053474;28;20021;-93
2021/07/03 06:24:56;;;;;;;27.45;13.60;;;;;;;;;;5056113;28;20028;-90
2021/07/03 06:27:21;;;;;;;30.35;12.93;;;;;;;;;;5062149;28;20057;-90
2021/07/03 06:29:46;;;;;;;21.55;12.23;;;;;;;;;;5070964;28;20088;-90
2021/07/03 06:32:11;;;;;;;21.13;12.23;;;;;;;;;;5061249;28;20020;-90
2021/07/03 06:34:37;;;;;;;21.67;12.18;;;;;;;;;;5059980;28;20017;-90
2021/07/03 06:37:02;;;;;;;17.02;11.10;;;;;;;;;;5071883;28;20107;-91
2021/07/03 06:39:27;;;;;;;20.13;11.35;;;;;;;;;;5073099;28;20387;-89
2021/07/03 06:41:53;;;;;;;19.70;11.60;;;;;;;;;;5073271;28;20023;-89
2021/07/03 06:44:18;;;;;;;18.35;11.20;;;;;;;;;;5064835;28;20032;-89
2021/07/03 06:46:43;;;;;;;18.55;10.75;;;;;;;;;;5053974;28;20084;-89
2021/07/03 06:49:08;;;;;;;17.75;11.68;;;;;;;;;;5062953;28;20024;-89
2021/07/03 06:51:34;;;;;;;21.98;10.95;;;;;;;;;;5051724;28;20447;-89
2021/07/03 06:54:02;;;;;;;15.02;9.93;;;;;;;;;;5062171;28;20039;-89
2021/07/03 06:56:28;;;;;;;18.92;10.75;;;;;;;;;;5072025;28;20363;-89
2021/07/03 06:58:53;;;;;;;15.35;10.05;;;;;;;;;;5071977;28;20123;-89
2021/07/03 07:01:18;;;;;;;18.48;10.82;;;;;;;;;;5057761;28;20025;-89
2021/07/03 07:03:43;;;;;;;19.63;11.20;;;;;;;;;;5066317;28;20029;-89
2021/07/03 07:06:09;;;;;;;23.88;11.63;;;;;;;;;;5054446;28;20024;-89
2021/07/03 07:08:34;;;;;;;16.33;9.90;;;;;;;;;;5070808;28;20499;-89
2021/07/03 07:10:59;;;;;;;20.67;9.90;;;;;;;;;;5065394;28;20036;-89
2021/07/03 07:13:24;;;;;;;17.77;10.05;;;;;;;;;;5058382;28;20024;-89
2021/07/03 07:15:49;;;;;;;16.42;9.52;;;;;;;;;;5066291;28;20013;-89
2021/07/03 07:18:15;;;;;;;20.95;9.52;;;;;;;;;;5051685;28;20024;-89
2021/07/03 07:20:40;;;;;;;15.20;9.30;;;;;;;;;;5062133;28;20111;-89
2021/07/03 07:23:05;;;;;;;15.43;9.60;;;;;;;;;;5060022;28;20380;-88
2021/07/03 07:25:30;;;;;;;15.88;10.48;;;;;;;;;;5068322;28;20032;-89
2021/07/03 07:27:56;;;;;;;16.08;9.52;;;;;;;;;;5071822;28;20017;-89
2021/07/03 07:30:21;;;;;;;17.92;9.93;;;;;;;;;;5068929;28;20021;-87
2021/07/03 07:32:46;;;;;;;17.98;10.00;;;;;;;;;;5063638;28;20424;-88
2021/07/03 07:35:12;;;;;;;15.73;9.77;;;;;;;;;;5068130;28;20009;-88
2021/07/03 07:37:37;;;;;;;18.33;10.05;;;;;;;;;;5061474;28;20051;-89
2021/07/03 07:40:03;;;;;;;19.63;10.77;;;;;;;;;;5070213;28;20113;-88
2021/07/03 07:42:29;;;;;;;19.83;10.75;;;;;;;;;;5052903;28;20024;-88
2021/07/03 07:44:54;;;;;;;17.02;10.43;;;;;;;;;;5051400;28;20028;-89
2021/07/03 07:47:19;;;;;;;21.80;10.57;;;;;;;;;;5051397;28;20103;-89
2021/07/03 07:49:44;;;;;;;16.60;10.60;;;;;;;;;;5059456;28;20037;-88
2021/07/03 07:52:10;;;;;;;18.63;10.82;;;;;;;;;;5065172;28;20017;-89
2021/07/03 07:54:35;;;;;;;19.52;10.52;;;;;;;;;;5071538;28;20020;-88
2021/07/03 07:57:00;;;;;;;15.60;9.68;;;;;;;;;;5071687;28;20078;-88
2021/07/03 07:59:28;;;;;;;19.92;11.55;;;;;;;;;;5071519;28;20017;-89
2021/07/03 08:01:54;;;;;;;19.48;11.23;;;;;;;;;;5067556;28;20078;-89
2021/07/03 08:04:19;;;;;;;19.10;10.60;;;;;;;;;;5069975;28;20028;-88
2021/07/03 08:06:44;;;;;;;16.20;10.38;;;;;;;;;;5051637;28;20097;-89
2021/07/03 08:09:09;;;;;;;21.50;11.35;;;;;;;;;;5051683;28;20053;-89
2021/07/03 08:11:35;;;;;;;18.85;11.13;;;;;;;;;;5070668;28;20017;-88
2021/07/03 08:14:00;;;;;;;17.98;10.80;;;;;;;;;;5060197;28;20043;-89
2021/07/03 08:16:25;;;;;;;15.55;9.60;;;;;;;;;;5065261;28;20016;-89
2021/07/03 08:18:50;;;;;;;16.73;11.00;;;;;;;;;;5051411;28;20016;-89
2021/07/03 08:21:17;;;;;;;20.08;11.63;;;;;;;;;;5056956;28;20020;-89
2021/07/03 08:23:42;;;;;;;24.15;12.00;;;;;;;;;;5069152;28;20364;-88
2021/07/03 08:26:07;;;;;;;19.50;11.50;;;;;;;;;;5067939;28;20056;-89
2021/07/03 08:28:32;;;;;;;19.42;11.75;;;;;;;;;;5074894;28;20012;-89
2021/07/03 08:30:58;;;;;;;20.02;12.45;;;;;;;;;;5074806;28;20020;-89
2021/07/03 08:33:23;;;;;;;17.40;11.90;;;;;;;;;;5074673;28;20021;-89
2021/07/03 08:35:48;;;;;;;20.00;11.15;;;;;;;;;;5074804;28;20464;-89
2021/07/03 08:38:13;;;;;;;16.38;10.85;;;;;;;;;;5074615;28;20020;-89
2021/07/03 08:40:39;;;;;;;19.38;10.65;;;;;;;;;;5070253;28;20028;-89
2021/07/03 08:43:04;;;;;;;15.38;9.88;;;;;;;;;;5074661;28;20020;-89
2021/07/03 08:45:29;;;;;;;18.27;10.32;;;;;;;;;;5073139;28;20538;-89
2021/07/03 08:47:54;;;;;;;24.90;11.27;;;;;;;;;;5055769;28;20025;-89
2021/07/03 08:50:20;;;;;;;17.23;9.73;;;;;;;;;;5070801;28;20085;-89
2021/07/03 08:52:46;;;;;;;20.90;10.90;;;;;;;;;;5075671;28;20092;-89
2021/07/03 08:55:21;;;;;;;23.67;11.23;;;;;;;;;;5074596;28;20537;-88
2021/07/03 08:57:54;;;;;;;18.38;10.30;;;;;;;;;;5060871;28;20029;-89
2021/07/03 09:00:29;;;;;;;18.83;10.05;;;;;;;;;;5054671;28;20031;-88
2021/07/03 09:02:54;;;;;;;17.52;10.15;;;;;;;;;;5069271;28;20089;-89
2021/07/03 09:05:25;;;;;;;21.40;11.13;;;;;;;;;;5054289;28;20033;-89
2021/07/03 09:07:51;;;;;;;16.27;9.95;;;;;;;;;;5057538;28;20535;-88
2021/07/03 09:10:20;;;;;;;15.27;10.27;;;;;;;;;;5052798;28;20104;-88
2021/07/03 09:12:47;;;;;;;14.27;9.43;;;;;;;;;;5054846;28;20483;-87
2021/07/03 09:15:15;;;;;;;18.67;10.38;;;;;;;;;;5065922;28;20421;-88
2021/07/03 09:18:00;;;;;;;16.35;9.73;;;;;;;;;;5067219;28;20475;-87
2021/07/03 09:20:25;;;;;;;16.73;9.65;;;;;;;;;;5059001;28;20041;-88
2021/07/03 09:22:51;;;;;;;18.15;10.23;;;;;;;;;;5058931;28;20377;-87
2021/07/03 09:25:17;;;;;;;14.60;9.38;;;;;;;;;;5053461;28;20028;-87
2021/07/03 09:27:42;;;;;;;26.25;10.60;;;;;;;;;;5052672;28;20029;-88
2021/07/03 09:30:08;;;;;;;15.15;9.93;;;;;;;;;;5057477;28;20032;-90
2021/07/03 09:32:33;;;;;;;17.27;10.27;;;;;;;;;;5052421;28;20028;-90
2021/07/03 09:35:05;;;;;;;15.25;9.85;;;;;;;;;;5052252;28;20056;-88
2021/07/03 09:37:30;;;;;;;17.85;10.95;;;;;;;;;;5053124;28;20032;-89
2021/07/03 09:40:06;;;;;;;22.05;10.13;;;;;;;;;;5053706;28;20387;-87
2021/07/03 09:42:35;;;;;;;19.77;10.80;;;;;;;;;;5054962;28;20107;-88
2021/07/03 09:45:00;;;;;;;25.98;10.70;;;;;;;;;;5059019;28;20566;-88
2021/07/03 09:47:27;;;;;;;22.15;11.05;;;;;;;;;;5054072;28;20112;-87
2021/07/03 09:50:00;;;;;;;19.42;11.13;;;;;;;;;;5062888;28;20020;-87
2021/07/03 09:52:25;;;;;;;12.93;9.07;;;;;;;;;;5062081;28;20021;-87
2021/07/03 09:54:51;;;;;;;14.93;9.38;;;;;;;;;;5051494;28;20024;-88
2021/07/03 09:57:16;;;;;;;13.50;9.15;;;;;;;;;;5053379;28;21537;-90
2021/07/03 09:59:44;;;;;;;16.63;9.80;;;;;;;;;;5083416;28;20017;-91
2021/07/03 10:02:09;;;;;;;15.23;9.60;;;;;;;;;;5053152;28;20024;-91
2021/07/03 10:04:35;;;;;;;18.23;9.30;;;;;;;;;;5053149;28;20027;-91
2021/07/03 10:07:06;;;;;;;18.42;10.20;;;;;;;;;;5053648;28;20468;-92
2021/07/03 10:09:31;;;;;;;18.13;9.77;;;;;;;;;;5050769;28;20013;-91
2021/07/03 10:11:59;;;;;;;15.05;9.63;;;;;;;;;;5053185;28;20352;-91
2021/07/03 10:14:25;;;;;;;17.35;9.65;;;;;;;;;;5053208;28;20032;-92
2021/07/03 10:17:03;;;;;;;16.08;10.25;;;;;;;;;;5053302;28;20024;-90
2021/07/03 10:19:33;;;;;;;14.45;9.60;;;;;;;;;;5051936;28;20075;-92
2021/07/03 10:22:17;;;;;;;15.80;9.55;;;;;;;;;;5057885;28;20052;-90
2021/07/03 10:24:45;;;;;;;19.98;9.05;;;;;;;;;;5052659;28;20025;-93
2021/07/03 10:27:36;;;;;;;15.95;9.27;;;;;;;;;;5053489;28;20025;-91
2021/07/03 10:30:05;;;;;;;17.27;9.88;;;;;;;;;;5052070;28;20500;-91
2021/07/03 10:32:32;;;;;;;16.25;9.63;;;;;;;;;;5053693;28;20043;-92
2021/07/03 10:35:07;;;;;;;15.68;9.30;;;;;;;;;;5053126;28;20535;-92
2021/07/03 10:37:33;;;;;;;22.42;10.77;;;;;;;;;;5051122;28;20070;-92
2021/07/03 10:39:58;;;;;;;16.27;10.82;;;;;;;;;;5060537;28;20020;-92
2021/07/03 10:42:31;;;;;;;20.45;10.13;;;;;;;;;;5052495;28;20063;-91
2021/07/03 10:45:06;;;;;;;16.70;9.82;;;;;;;;;;5051911;28;20087;-91
2021/07/03 10:47:32;;;;;;;14.85;10.13;;;;;;;;;;5046590;28;20017;-93
2021/07/03 10:49:57;;;;;;;16.40;10.32;;;;;;;;;;5053873;28;20078;-92
2021/07/03 10:52:22;;;;;;;15.75;8.98;;;;;;;;;;5052716;28;20021;-94
2021/07/03 10:54:48;;;;;;;14.63;9.52;;;;;;;;;;5052465;28;20017;-91
2021/07/03 10:57:23;;;;;;;15.18;9.30;;;;;;;;;;5052747;28;20586;-92
2021/07/03 10:59:58;;;;;;;17.38;9.27;;;;;;;;;;5054362;28;20017;-93
2021/07/03 11:02:29;;;;;;;15.55;9.82;;;;;;;;;;5053692;28;20031;-92
2021/07/03 11:04:55;;;;;;;18.17;9.32;;;;;;;;;;5043986;28;20029;-92
2021/07/03 11:07:21;;;;;;;15.95;9.95;;;;;;;;;;5056561;28;20032;-92
2021/07/03 11:09:46;;;;;;;16.67;8.75;;;;;;;;;;5053810;28;20041;-91
2021/07/03 11:12:12;;;;;;;17.27;9.55;;;;;;;;;;5057781;28;20021;-92
2021/07/03 11:14:48;;;;;;;21.73;9.43;;;;;;;;;;5052269;28;20009;-91
2021/07/03 11:17:14;;;;;;;16.73;9.43;;;;;;;;;;5056565;28;20387;-92
2021/07/03 11:19:42;;;;;;;17.75;8.75;;;;;;;;;;5086340;28;20025;-91
2021/07/03 11:22:08;;;;;;;13.63;7.95;;;;;;;;;;5056076;28;20365;-92
2021/07/03 11:24:41;;;;;;;20.42;8.80;;;;;;;;;;5048122;28;20025;-91
2021/07/03 11:27:06;;;;;;;;;;;;;;;;;;5052705;28;20021;-91
2021/07/03 11:29:31;;;;;;;14.88;8.43;;;;;;;;;;5062460;28;19935;-93
2021/07/03 11:32:03;;;;;;;14.13;7.72;;;;;;;;;;5055198;28;20250;-91
2021/07/03 11:34:29;;;;;;;14.27;8.02;;;;;;;;;;5057944;28;20073;-91
2021/07/03 11:36:54;;;;;;;13.98;8.68;;;;;;;;;;5052837;28;20112;-91
2021/07/03 11:39:20;;;;;;;19.58;8.55;;;;;;;;;;5052440;28;20445;-91
2021/07/03 11:41:45;;;;;;;14.65;7.57;;;;;;;;;;5052660;28;20032;-91
2021/07/03 11:44:10;;;;;;;12.18;8.07;;;;;;;;;;5052019;28;20029;-91
2021/07/03 11:46:35;;;;;;;16.42;7.43;;;;;;;;;;5052031;28;20047;-91
2021/07/03 11:49:02;;;;;;;20.50;9.57;;;;;;;;;;5049571;28;20013;-91
2021/07/03 11:51:31;;;;;;;17.77;9.02;;;;;;;;;;5053550;28;20021;-90
2021/07/03 11:53:56;;;;;;;15.93;9.00;;;;;;;;;;5050118;28;20028;-91
2021/07/03 11:56:22;;;;;;;13.43;8.07;;;;;;;;;;5052827;28;20021;-91
2021/07/03 11:58:50;;;;;;;14.43;8.05;;;;;;;;;;5069869;28;20020;-91
2021/07/03 12:01:16;;;;;;;14.00;7.75;;;;;;;;;;5057591;28;20075;-91
2021/07/03 12:03:43;;;;;;;14.85;8.30;;;;;;;;;;5054720;28;20345;-91
2021/07/03 12:06:09;;;;;;;14.00;7.90;;;;;;;;;;5054970;28;20013;-92
2021/07/03 12:08:35;;;;;;;13.32;8.40;;;;;;;;;;5054835;28;20476;-92
2021/07/03 12:11:02;;;;;;;17.48;8.13;;;;;;;;;;5055272;28;20392;-91
2021/07/03 12:13:29;;;;;;;17.23;8.35;;;;;;;;;;5055958;28;20012;-92
2021/07/03 12:15:54;;;;;;;15.25;8.73;;;;;;;;;;5056563;28;20029;-94
2021/07/03 12:18:25;;;;;;;15.98;7.97;;;;;;;;;;5055525;28;20051;-94
2021/07/03 12:21:01;;;;;;;10.82;7.32;;;;;;;;;;5056016;28;20021;-96
2021/07/03 12:23:26;;;;;;;18.70;8.48;;;;;;;;;;5094345;28;20500;-95
2021/07/03 12:25:52;;;;;;;15.95;7.97;;;;;;;;;;5055894;28;20021;-95
2021/07/03 12:28:17;;;;;;;14.55;8.02;;;;;;;;;;5054319;28;20025;-95
2021/07/03 12:30:42;;;;;;;19.52;8.00;;;;;;;;;;5055790;28;20112;-94
2021/07/03 12:33:08;;;;;;;15.07;8.57;;;;;;;;;;5055484;28;20020;-94
2021/07/03 12:35:47;;;;;;;15.68;8.25;;;;;;;;;;5056327;28;20075;-95
2021/07/03 12:38:12;;;;;;;23.52;10.10;;;;;;;;;;5053212;28;20039;-94
2021/07/03 12:40:40;;;;;;;13.02;7.05;;;;;;;;;;5055212;28;20484;-94
2021/07/03 12:43:06;;;;;;;13.55;7.70;;;;;;;;;;5056023;28;20021;-95
2021/07/03 12:45:31;;;;;;;19.58;9.90;;;;;;;;;;5056487;28;20490;-93
2021/07/03 12:48:13;;;;;;;25.48;11.23;;;;;;;;;;5052414;28;20151;-92
2021/07/03 12:50:39;;;;;;;17.95;9.20;;;;;;;;;;5072717;28;20056;-94
2021/07/03 12:53:05;;;;;;;19.20;10.82;;;;;;;;;;5059738;28;20032;-94
2021/07/03 12:55:36;;;;;;;16.50;9.23;;;;;;;;;;5070475;28;20021;-94
2021/07/03 12:58:01;;;;;;;12.93;8.05;;;;;;;;;;5055162;28;20078;-94
2021/07/03 13:00:27;;;;;;;12.20;7.88;;;;;;;;;;5055051;28;20029;-94
2021/07/03 13:02:52;;;;;;;14.65;8.77;;;;;;;;;;5054919;28;20111;-94
2021/07/03 13:05:21;;;;;;;12.40;8.52;;;;;;;;;;5055069;28;20195;-94
2021/07/03 13:07:46;;;;;;;13.57;8.77;;;;;;;;;;5053892;28;20013;-94
2021/07/03 13:10:14;;;;;;;16.23;7.82;;;;;;;;;;5054811;28;20356;-94
2021/07/03 13:12:39;;;;;;;14.25;9.70;;;;;;;;;;5054753;28;20013;-93
2021/07/03 13:15:04;;;;;;;14.70;8.98;;;;;;;;;;5055003;28;20017;-94
2021/07/03 13:17:30;;;;;;;13.80;8.60;;;;;;;;;;5054718;28;20025;-94
2021/07/03 13:19:55;;;;;;;19.15;9.05;;;;;;;;;;5054451;28;20025;-94
2021/07/03 13:22:20;;;;;;;14.90;9.02;;;;;;;;;;5054500;28;20021;-94
2021/07/03 13:24:45;;;;;;;11.65;8.35;;;;;;;;;;5050825;28;20025;-94
2021/07/03 13:27:11;;;;;;;18.02;8.90;;;;;;;;;;5051093;28;20017;-94
2021/07/03 13:29:36;;;;;;;15.23;8.77;;;;;;;;;;5054486;28;20017;-93
2021/07/03 13:32:01;;;;;;;22.58;8.15;;;;;;;;;;5054324;28;20027;-94
2021/07/03 13:34:26;;;;;;;13.52;8.27;;;;;;;;;;5054398;28;20028;-94
2021/07/03 13:36:51;;;;;;;14.45;8.35;;;;;;;;;;5054508;28;20473;-93
2021/07/03 13:39:17;;;;;;;13.43;8.27;;;;;;;;;;5054322;28;20021;-93
2021/07/03 13:41:42;;;;;;;13.18;7.90;;;;;;;;;;5054170;28;20079;-93
2021/07/03 13:44:07;;;;;;;18.10;9.80;;;;;;;;;;5054133;28;20025;-94
2021/07/03 13:46:33;;;;;;;16.50;9.70;;;;;;;;;;5054152;28;20053;-94
2021/07/03 13:48:58;;;;;;;15.40;10.07;;;;;;;;;;5055067;28;20032;-94
2021/07/03 13:51:23;;;;;;;14.02;9.57;;;;;;;;;;5074256;28;20051;-94
2021/07/03 13:53:48;;;;;;;18.88;11.82;;;;;;;;;;5061059;28;20028;-93
2021/07/03 13:56:13;;;;;;;18.13;11.50;;;;;;;;;;5072792;28;20017;-94
2021/07/03 13:58:39;;;;;;;19.40;10.35;;;;;;;;;;5063405;28;20029;-94
2021/07/03 14:01:06;;;;;;;14.82;10.70;;;;;;;;;;5063679;28;20025;-94
2021/07/03 14:03:32;;;;;;;14.05;9.18;;;;;;;;;;5053878;28;20025;-94
2021/07/03 14:05:57;;;;;;;18.00;11.15;;;;;;;;;;5067852;28;20013;-94
2021/07/03 14:08:22;;;;;;;22.02;11.52;;;;;;;;;;5053763;28;20028;-95
2021/07/03 14:10:47;;;;;;;21.63;11.93;;;;;;;;;;5054934;28;20375;-94
2021/07/03 14:13:13;;;;;;;24.42;13.57;;;;;;;;;;5058266;28;20015;-94
2021/07/03 14:15:38;;;;;;;28.50;14.00;;;;;;;;;;5073590;28;20024;-94
2021/07/03 14:18:03;;;;;;;20.00;10.55;;;;;;;;;;5057016;28;20029;-94